createdAt,value
2023-11-18T00:01:30.070Z,12.98
2023-11-18T00:03:56.765Z,5.70
2023-11-18T00:06:23.356Z,6.90
2023-11-18T00:08:49.876Z,8.70
2023-11-18T00:11:16.743Z,8.85
2023-11-18T00:13:43.312Z,11.98
2023-11-18T00:16:09.897Z,11.02
2023-11-18T00:18:36.469Z,14.13
2023-11-18T00:21:02.971Z,14.52
2023-11-18T00:23:29.462Z,6.38
2023-11-18T00:25:56.041Z,8.90
2023-11-18T00:28:22.573Z,3.03
2023-11-18T00:30:49.103Z,6.38
2023-11-18T00:33:15.887Z,4.10
2023-11-18T00:35:42.526Z,11.13
2023-11-18T00:38:09.020Z,8.35
2023-11-18T00:40:35.569Z,3.42
2023-11-18T00:43:02.069Z,7.82
2023-11-18T00:45:28.585Z,8.93
2023-11-18T00:47:55.362Z,6.53
2023-11-18T00:50:22.042Z,10.15
2023-11-18T00:52:48.589Z,10.23
2023-11-18T00:55:15.285Z,6.07
2023-11-18T00:57:41.752Z,8.70
2023-11-18T01:00:08.235Z,14.93
2023-11-18T01:02:34.789Z,8.75
2023-11-18T01:05:01.299Z,8.75
2023-11-18T01:07:27.822Z,7.47
2023-11-18T01:09:54.414Z,8.80
2023-11-18T01:12:20.864Z,11.73
2023-11-18T01:14:47.442Z,8.88
2023-11-18T01:17:13.976Z,10.80
2023-11-18T01:19:41.088Z,10.60
2023-11-18T01:22:07.743Z,8.73
2023-11-18T01:24:35.206Z,8.23
2023-11-18T01:27:01.769Z,11.85
2023-11-18T01:29:28.338Z,10.15
2023-11-18T01:31:55.055Z,8.55
2023-11-18T01:34:21.664Z,12.73
2023-11-18T01:36:48.244Z,12.85
2023-11-18T01:39:14.891Z,14.48
2023-11-18T01:41:41.397Z,11.02
2023-11-18T01:44:07.929Z,14.25
2023-11-18T01:46:34.526Z,14.05
2023-11-18T01:49:01.058Z,16.00
2023-11-18T01:51:27.521Z,15.60
2023-11-18T01:53:54.092Z,14.82
2023-11-18T01:56:20.597Z,14.98
2023-11-18T01:58:47.079Z,26.42
2023-11-18T02:01:13.702Z,16.85
2023-11-18T02:03:40.271Z,13.20
2023-11-18T02:06:06.830Z,13.02
2023-11-18T02:08:33.701Z,18.23
2023-11-18T02:11:00.223Z,17.67
2023-11-18T02:13:27.030Z,12.60
2023-11-18T02:15:56.652Z,21.83
2023-11-18T02:18:23.347Z,17.77
2023-11-18T02:21:09.861Z,17.60
2023-11-18T02:23:36.241Z,15.70
2023-11-18T02:26:02.782Z,17.10
2023-11-18T02:28:29.465Z,12.52
2023-11-18T02:30:55.952Z,13.85
2023-11-18T02:33:22.568Z,15.18
2023-11-18T02:35:49.136Z,14.18
2023-11-18T02:38:15.621Z,10.68
2023-11-18T02:40:42.212Z,15.55
2023-11-18T02:43:08.788Z,12.98
2023-11-18T02:45:35.272Z,14.38
2023-11-18T02:48:01.851Z,11.68
2023-11-18T02:50:28.472Z,12.65
2023-11-18T02:52:54.984Z,12.88
2023-11-18T02:55:21.611Z,11.43
2023-11-18T02:57:48.181Z,14.55
2023-11-18T03:00:14.681Z,11.23
2023-11-18T03:02:41.415Z,10.27
2023-11-18T03:05:08.063Z,8.70
2023-11-18T03:07:34.621Z,17.88
2023-11-18T03:10:01.158Z,10.85
2023-11-18T03:12:27.884Z,11.43
2023-11-18T03:14:54.373Z,6.72
2023-11-18T03:17:20.886Z,16.85
2023-11-18T03:19:47.469Z,8.88
2023-11-18T03:22:13.987Z,6.07
2023-11-18T03:24:40.475Z,8.18
2023-11-18T03:27:07.115Z,9.88
2023-11-18T03:29:33.609Z,9.85
2023-11-18T03:32:00.214Z,6.85
2023-11-18T03:34:26.923Z,9.88
2023-11-18T03:36:53.389Z,10.35
2023-11-18T03:39:19.899Z,9.05
2023-11-18T03:41:46.531Z,10.40
2023-11-18T03:44:13.037Z,15.55
2023-11-18T03:46:39.642Z,10.90
2023-11-18T03:49:06.245Z,10.90
2023-11-18T03:51:32.740Z,7.53
2023-11-18T03:53:59.281Z,9.70
2023-11-18T03:56:25.871Z,10.27
2023-11-18T03:58:52.351Z,6.32
2023-11-18T04:01:18.902Z,8.30
2023-11-18T04:03:45.562Z,14.45
2023-11-18T04:06:12.156Z,8.40
2023-11-18T04:08:38.624Z,9.27
2023-11-18T04:11:05.228Z,9.93
2023-11-18T04:13:31.707Z,14.55
2023-11-18T04:15:58.206Z,8.23
2023-11-18T04:18:24.801Z,6.50
2023-11-18T04:20:51.925Z,11.63
2023-11-18T04:23:18.498Z,9.40
2023-11-18T04:25:45.115Z,10.13
2023-11-18T04:28:11.654Z,10.75
2023-11-18T04:30:38.213Z,9.93
2023-11-18T04:33:04.851Z,7.78
2023-11-18T04:35:31.328Z,21.00
2023-11-18T04:37:57.892Z,12.10
2023-11-18T04:40:24.588Z,7.47
2023-11-18T04:42:51.155Z,6.85
2023-11-18T04:45:17.656Z,9.05
2023-11-18T04:47:44.526Z,5.60
2023-11-18T04:50:11.299Z,6.03
2023-11-18T04:52:37.985Z,8.38
2023-11-18T04:55:04.660Z,5.10
2023-11-18T04:57:31.367Z,6.13
2023-11-18T04:59:57.867Z,13.82
2023-11-18T05:02:24.548Z,9.88
2023-11-18T05:04:51.115Z,9.13
2023-11-18T05:07:17.669Z,8.75
2023-11-18T05:09:44.327Z,9.50
2023-11-18T05:12:10.817Z,9.43
2023-11-18T05:14:37.286Z,12.65
2023-11-18T05:17:03.956Z,11.48
2023-11-18T05:19:30.491Z,9.63
2023-11-18T05:21:56.946Z,10.70
2023-11-18T05:24:23.512Z,13.90
2023-11-18T05:26:50.669Z,11.73
2023-11-18T05:29:17.149Z,12.07
2023-11-18T05:31:43.929Z,8.82
2023-11-18T05:34:10.604Z,10.77
2023-11-18T05:36:37.283Z,4.75
2023-11-18T05:39:04.496Z,5.53
2023-11-18T05:41:31.840Z,7.60
2023-11-18T05:43:58.704Z,7.32
2023-11-18T05:46:25.735Z,13.43
2023-11-18T05:48:52.959Z,11.52
2023-11-18T05:51:20.248Z,12.05
2023-11-18T05:53:47.206Z,10.30
2023-11-18T05:56:13.954Z,11.95
2023-11-18T05:58:40.592Z,5.55
2023-11-18T06:01:07.722Z,4.15
2023-11-18T06:03:34.977Z,16.38
2023-11-18T06:06:01.504Z,13.73
2023-11-18T06:08:28.060Z,8.15
2023-11-18T06:10:54.594Z,14.68
2023-11-18T06:13:21.092Z,9.57
2023-11-18T06:15:47.698Z,7.28
2023-11-18T06:18:14.251Z,5.57
2023-11-18T06:20:40.848Z,8.25
2023-11-18T06:23:07.518Z,7.00
2023-11-18T06:25:34.105Z,8.25
2023-11-18T06:28:00.714Z,16.38
2023-11-18T06:30:27.380Z,12.55
2023-11-18T06:32:53.914Z,7.78
2023-11-18T06:35:20.453Z,6.93
2023-11-18T06:37:47.140Z,10.63
2023-11-18T06:40:13.651Z,9.55
2023-11-18T06:42:40.094Z,9.55
2023-11-18T06:45:06.682Z,8.57
2023-11-18T06:47:33.384Z,8.43
2023-11-18T06:49:59.974Z,13.93
2023-11-18T06:52:26.666Z,10.82
2023-11-18T06:54:53.234Z,12.32
2023-11-18T06:57:19.717Z,11.00
2023-11-18T06:59:46.341Z,10.68
2023-11-18T07:02:12.978Z,10.48
2023-11-18T07:04:39.615Z,13.60
2023-11-18T07:07:06.418Z,7.15
2023-11-18T07:09:32.924Z,10.18
2023-11-18T07:11:59.418Z,10.65
2023-11-18T07:14:26.145Z,12.80
2023-11-18T07:16:52.672Z,9.02
2023-11-18T07:19:19.198Z,11.73
2023-11-18T07:21:45.860Z,11.35
2023-11-18T07:24:12.410Z,9.05
2023-11-18T07:26:38.894Z,7.97
2023-11-18T07:29:05.513Z,19.42
2023-11-18T07:31:32.060Z,18.50
2023-11-18T07:33:58.530Z,17.05
2023-11-18T07:36:25.204Z,13.63
2023-11-18T07:38:51.727Z,9.95
2023-11-18T07:41:18.213Z,9.70
2023-11-18T07:43:44.948Z,8.35
2023-11-18T07:46:11.508Z,10.52
2023-11-18T07:48:38.000Z,6.32
2023-11-18T07:51:04.616Z,5.20
2023-11-18T07:53:31.134Z,9.32
2023-11-18T07:55:57.641Z,14.38
2023-11-18T07:58:24.521Z,7.18
2023-11-18T08:00:51.106Z,10.40
2023-11-18T08:03:17.650Z,12.60
2023-11-18T08:05:44.363Z,4.40
2023-11-18T08:08:10.890Z,13.18
2023-11-18T08:10:37.507Z,13.00
2023-11-18T08:13:04.186Z,11.43
2023-11-18T08:15:30.777Z,13.82
2023-11-18T08:17:57.331Z,12.20
2023-11-18T08:20:24.019Z,11.07
2023-11-18T08:22:50.504Z,12.05
2023-11-18T08:25:17.016Z,14.95
2023-11-18T08:27:43.573Z,11.18
2023-11-18T08:30:10.072Z,10.45
2023-11-18T08:32:36.708Z,7.50
2023-11-18T08:35:03.361Z,8.80
2023-11-18T08:37:30.612Z,9.15
2023-11-18T08:39:57.117Z,8.75
2023-11-18T08:42:23.821Z,8.18
2023-11-18T08:44:50.378Z,8.60
2023-11-18T08:47:16.871Z,6.70
2023-11-18T08:49:43.499Z,7.25
2023-11-18T08:52:09.990Z,12.13
2023-11-18T08:54:36.522Z,8.60
2023-11-18T08:57:03.146Z,7.68
2023-11-18T08:59:29.687Z,14.02
2023-11-18T09:01:56.288Z,12.40
2023-11-18T09:04:23.078Z,15.93
2023-11-18T09:06:49.599Z,6.50
2023-11-18T09:09:16.090Z,10.73
2023-11-18T09:11:42.685Z,8.27
2023-11-18T09:14:09.290Z,9.25
2023-11-18T09:16:35.826Z,6.30
2023-11-18T09:19:02.409Z,8.18
2023-11-18T09:21:28.917Z,13.05
2023-11-18T09:23:55.570Z,6.80
2023-11-18T09:26:22.213Z,9.52
2023-11-18T09:28:48.881Z,8.43
2023-11-18T09:31:15.402Z,7.20
2023-11-18T09:33:42.016Z,6.22
2023-11-18T09:36:08.531Z,7.53
2023-11-18T09:38:35.197Z,7.38
2023-11-18T09:41:01.832Z,10.57
2023-11-18T09:43:28.389Z,6.95
2023-11-18T09:45:54.868Z,5.68
2023-11-18T09:48:21.496Z,8.25
2023-11-18T09:50:48.040Z,3.70
2023-11-18T09:53:14.591Z,9.52
2023-11-18T09:55:41.288Z,6.65
2023-11-18T09:58:07.847Z,6.20
2023-11-18T10:00:34.499Z,6.90
2023-11-18T10:03:01.464Z,5.72
2023-11-18T10:05:28.939Z,14.82
2023-11-18T10:07:56.240Z,7.60
2023-11-18T10:10:22.913Z,11.13
2023-11-18T10:12:49.437Z,4.25
2023-11-18T10:15:15.914Z,5.60
2023-11-18T10:17:42.486Z,7.38
2023-11-18T10:20:09.012Z,8.52
2023-11-18T10:22:35.542Z,5.65
2023-11-18T10:25:02.266Z,11.32
2023-11-18T10:27:30.812Z,4.72
2023-11-18T10:29:57.290Z,3.80
2023-11-18T10:32:23.840Z,17.63
2023-11-18T10:34:50.382Z,10.32
2023-11-18T10:37:16.862Z,6.07
2023-11-18T10:39:43.471Z,6.22
2023-11-18T10:42:09.930Z,7.05
2023-11-18T10:44:36.396Z,8.50
2023-11-18T10:47:02.975Z,7.53
2023-11-18T10:49:29.488Z,6.18
2023-11-18T10:51:56.044Z,12.90
2023-11-18T10:54:22.599Z,6.93
2023-11-18T10:56:49.146Z,9.60
2023-11-18T10:59:15.681Z,10.15
2023-11-18T11:01:42.276Z,8.25
2023-11-18T11:04:09.184Z,8.23
2023-11-18T11:06:35.644Z,10.57
2023-11-18T11:09:02.227Z,7.80
2023-11-18T11:11:28.765Z,7.53
2023-11-18T11:13:55.247Z,9.88
2023-11-18T11:16:21.921Z,9.57
2023-11-18T11:18:48.444Z,8.27
2023-11-18T11:21:14.967Z,13.95
2023-11-18T11:23:41.599Z,9.20
2023-11-18T11:26:08.161Z,10.55
2023-11-18T11:28:34.681Z,12.93
2023-11-18T11:31:01.322Z,7.90
2023-11-18T11:33:27.811Z,10.77
2023-11-18T11:35:54.358Z,7.25
2023-11-18T11:38:21.020Z,8.95
2023-11-18T11:40:47.647Z,7.68
2023-11-18T11:43:14.355Z,9.25
2023-11-18T11:45:40.910Z,8.77
2023-11-18T11:48:07.574Z,8.88
2023-11-18T11:50:34.262Z,10.82
2023-11-18T11:53:01.056Z,11.52
2023-11-18T11:55:27.765Z,8.43
2023-11-18T11:57:54.290Z,11.95
2023-11-18T12:00:20.868Z,12.32
2023-11-18T12:02:47.436Z,9.95
2023-11-18T12:05:14.388Z,8.57
2023-11-18T12:07:41.130Z,13.02
2023-11-18T12:10:07.761Z,10.23
2023-11-18T12:12:34.304Z,9.65
2023-11-18T12:15:00.901Z,12.27
2023-11-18T12:17:27.459Z,11.00
2023-11-18T12:19:53.949Z,12.93
2023-11-18T12:22:20.534Z,9.45
2023-11-18T12:24:47.049Z,13.70
2023-11-18T12:27:13.748Z,10.73
2023-11-18T12:29:40.301Z,16.80
2023-11-18T12:32:06.792Z,22.75
2023-11-18T12:34:33.288Z,17.90
2023-11-18T12:36:59.892Z,9.00
2023-11-18T12:39:26.412Z,10.15
2023-11-18T12:41:52.922Z,9.85
2023-11-18T12:44:19.559Z,10.32
2023-11-18T12:46:46.341Z,15.45
2023-11-18T12:49:12.918Z,12.38
2023-11-18T12:51:39.500Z,15.40
2023-11-18T12:54:06.038Z,10.13
2023-11-18T12:56:32.578Z,18.17
2023-11-18T12:58:59.287Z,14.07
2023-11-18T13:01:25.871Z,9.23
2023-11-18T13:03:52.476Z,22.13
2023-11-18T13:06:20.312Z,19.13
2023-11-18T13:08:47.351Z,13.63
2023-11-18T13:11:13.900Z,14.80
2023-11-18T13:13:40.592Z,20.50
2023-11-18T13:16:07.196Z,15.75
2023-11-18T13:18:33.729Z,16.02
2023-11-18T13:21:00.330Z,16.13
2023-11-18T13:23:26.906Z,34.67
2023-11-18T13:25:53.439Z,13.68
2023-11-18T13:28:20.023Z,20.35
2023-11-18T13:30:46.540Z,19.73
2023-11-18T13:33:13.157Z,18.38
2023-11-18T13:35:39.765Z,17.75
2023-11-18T13:38:06.368Z,17.73
2023-11-18T13:40:33.084Z,13.80
2023-11-18T13:42:59.662Z,24.13
2023-11-18T13:45:33.788Z,18.05
2023-11-18T13:48:04.807Z,18.95
2023-11-18T13:50:31.519Z,19.73
2023-11-18T13:52:58.114Z,22.50
2023-11-18T13:55:24.792Z,30.17
2023-11-18T13:57:51.269Z,24.63
2023-11-18T14:00:17.772Z,27.50
2023-11-18T14:02:44.556Z,29.02
2023-11-18T14:05:11.248Z,25.98
2023-11-18T14:07:37.794Z,31.55
2023-11-18T14:10:04.352Z,23.25
2023-11-18T14:12:30.937Z,24.67
2023-11-18T14:14:57.427Z,33.67
2023-11-18T14:17:24.037Z,27.38
2023-11-18T14:19:50.590Z,35.58
2023-11-18T14:22:17.053Z,34.90
2023-11-18T14:24:43.723Z,30.23
2023-11-18T14:27:10.181Z,36.30
2023-11-18T14:29:36.701Z,40.60
2023-11-18T14:32:03.460Z,20.60
2023-11-18T14:34:29.928Z,28.20
2023-11-18T14:36:56.376Z,26.50
2023-11-18T14:39:22.954Z,34.38
2023-11-18T14:41:49.561Z,49.42
2023-11-18T14:44:16.253Z,36.08
2023-11-18T14:46:42.895Z,43.30
2023-11-18T14:49:09.475Z,44.88
2023-11-18T14:51:35.942Z,38.13
2023-11-18T14:54:02.521Z,45.30
2023-11-18T14:56:29.328Z,26.63
2023-11-18T14:58:55.972Z,42.55
2023-11-18T15:01:22.703Z,36.22
2023-11-18T15:03:49.417Z,30.20
2023-11-18T15:06:16.408Z,37.30
2023-11-18T15:08:46.460Z,30.52
2023-11-18T15:11:14.427Z,35.72
2023-11-18T15:13:42.572Z,39.00
2023-11-18T15:16:10.553Z,46.35
2023-11-18T15:18:38.499Z,49.03
2023-11-18T15:21:06.447Z,45.33
2023-11-18T15:23:34.500Z,38.05
2023-11-18T15:26:01.514Z,36.55
2023-11-18T15:28:28.101Z,34.00
2023-11-18T15:30:54.784Z,43.42
2023-11-18T15:33:21.420Z,34.53
2023-11-18T15:35:48.082Z,31.15
2023-11-18T15:38:14.814Z,28.63
2023-11-18T15:40:41.467Z,25.73
2023-11-18T15:43:08.047Z,30.15
2023-11-18T15:45:34.862Z,29.77
2023-11-18T15:48:01.553Z,30.98
2023-11-18T15:50:28.178Z,27.77
2023-11-18T15:52:54.929Z,28.80
2023-11-18T15:55:21.455Z,29.13
2023-11-18T15:57:47.962Z,24.38
2023-11-18T16:00:14.563Z,31.65
2023-11-18T16:02:41.265Z,22.88
2023-11-18T16:05:07.960Z,24.20
2023-11-18T16:07:34.651Z,29.90
2023-11-18T16:10:01.140Z,29.02
2023-11-18T16:12:27.700Z,36.83
2023-11-18T16:14:54.416Z,27.27
2023-11-18T16:17:21.058Z,25.60
2023-11-18T16:19:47.625Z,24.75
2023-11-18T16:22:14.207Z,29.98
2023-11-18T16:24:40.811Z,25.35
2023-11-18T16:27:07.291Z,30.85
2023-11-18T16:29:33.918Z,28.02
2023-11-18T16:32:00.507Z,26.98
2023-11-18T16:34:27.033Z,25.95
2023-11-18T16:36:53.638Z,28.88
2023-11-18T16:39:20.356Z,28.13
2023-11-18T16:41:46.920Z,27.38
2023-11-18T16:44:13.580Z,35.83
2023-11-18T16:46:40.125Z,28.33
2023-11-18T16:49:06.654Z,32.97
2023-11-18T16:51:33.255Z,36.88
2023-11-18T16:53:59.815Z,36.15
2023-11-18T16:56:26.451Z,37.28
2023-11-18T16:58:53.075Z,47.90
2023-11-18T17:01:19.594Z,44.30
2023-11-18T17:03:46.196Z,42.92
2023-11-18T17:06:12.815Z,50.88
2023-11-18T17:08:39.370Z,48.20
2023-11-18T17:11:05.997Z,44.03
2023-11-18T17:13:32.685Z,59.95
2023-11-18T17:15:59.284Z,71.30
2023-11-18T17:18:25.836Z,69.50
2023-11-18T17:20:52.454Z,73.88
2023-11-18T17:23:18.986Z,60.35
2023-11-18T17:25:45.544Z,59.25
2023-11-18T17:28:13.328Z,65.13
2023-11-18T17:30:40.866Z,85.55
2023-11-18T17:33:07.456Z,76.30
2023-11-18T17:35:34.518Z,75.53
2023-11-18T17:38:01.166Z,76.05
2023-11-18T17:40:27.729Z,85.93
2023-11-18T17:42:55.149Z,90.63
2023-11-18T17:45:21.960Z,70.50
2023-11-18T17:47:48.499Z,90.25
2023-11-18T17:50:15.750Z,82.05
2023-11-18T17:52:42.691Z,76.00
2023-11-18T17:55:09.313Z,88.90
2023-11-18T17:57:35.909Z,87.93
2023-11-18T18:00:02.594Z,91.38
2023-11-18T18:02:31.360Z,92.82
2023-11-18T18:04:58.031Z,80.25
2023-11-18T18:07:24.558Z,84.63
2023-11-18T18:09:51.136Z,87.50
2023-11-18T18:12:17.755Z,82.72
2023-11-18T18:14:44.273Z,80.35
2023-11-18T18:17:10.865Z,73.07
2023-11-18T18:19:37.439Z,77.68
2023-11-18T18:22:03.978Z,67.18
2023-11-18T18:24:30.550Z,71.80
2023-11-18T18:26:57.139Z,76.55
2023-11-18T18:29:23.648Z,70.53
2023-11-18T18:31:50.321Z,75.97
2023-11-18T18:34:16.876Z,85.47
2023-11-18T18:36:43.423Z,84.50
2023-11-18T18:39:09.997Z,80.35
2023-11-18T18:41:36.739Z,83.72
2023-11-18T18:44:03.464Z,88.43
2023-11-18T18:46:30.035Z,93.60
2023-11-18T18:48:56.724Z,72.55
2023-11-18T18:51:23.352Z,63.08
2023-11-18T18:53:49.934Z,88.43
2023-11-18T18:56:16.662Z,82.10
2023-11-18T18:58:43.210Z,75.53
2023-11-18T19:01:09.802Z,66.55
2023-11-18T19:03:36.624Z,67.13
2023-11-18T19:06:03.202Z,72.57
2023-11-18T19:08:29.696Z,71.10
2023-11-18T19:10:56.328Z,75.30
2023-11-18T19:13:22.814Z,62.03
2023-11-18T19:15:49.418Z,67.90
2023-11-18T19:18:16.063Z,75.13
2023-11-18T19:20:42.676Z,54.05
2023-11-18T19:23:09.230Z,67.45
2023-11-18T19:25:35.811Z,69.70
2023-11-18T19:28:02.361Z,65.97
2023-11-18T19:30:28.866Z,68.68
2023-11-18T19:32:55.491Z,84.90
2023-11-18T19:35:22.077Z,70.22
2023-11-18T19:37:48.596Z,80.32
2023-11-18T19:40:15.516Z,74.30
2023-11-18T19:42:42.063Z,67.18
2023-11-18T19:45:08.547Z,73.45
2023-11-18T19:47:35.545Z,79.72
2023-11-18T19:50:02.812Z,84.28
2023-11-18T19:52:29.833Z,74.45
2023-11-18T19:54:56.412Z,62.15
2023-11-18T19:57:22.867Z,71.20
2023-11-18T19:59:49.398Z,87.93
2023-11-18T20:02:16.063Z,81.15
2023-11-18T20:04:42.581Z,86.88
2023-11-18T20:07:09.326Z,87.88
2023-11-18T20:09:35.936Z,83.97
2023-11-18T20:12:05.696Z,74.53
2023-11-18T20:14:32.749Z,73.80
2023-11-18T20:16:59.410Z,71.35
2023-11-18T20:19:25.986Z,72.05
2023-11-18T20:21:52.478Z,62.75
2023-11-18T20:24:19.150Z,77.45
2023-11-18T20:26:45.702Z,60.88
2023-11-18T20:29:12.236Z,61.65
2023-11-18T20:31:38.934Z,79.60
2023-11-18T20:34:05.524Z,75.85
2023-11-18T20:36:32.136Z,73.45
2023-11-18T20:38:58.718Z,61.55
2023-11-18T20:41:25.228Z,69.80
2023-11-18T20:43:51.742Z,69.63
2023-11-18T20:46:18.317Z,71.38
2023-11-18T20:48:44.830Z,65.88
2023-11-18T20:51:11.351Z,82.22
2023-11-18T20:53:38.028Z,59.55
2023-11-18T20:56:04.617Z,68.32
2023-11-18T20:58:31.319Z,62.95
2023-11-18T21:00:59.269Z,69.38
2023-11-18T21:03:26.084Z,54.50
2023-11-18T21:05:52.880Z,61.15
2023-11-18T21:08:19.572Z,55.17
2023-11-18T21:10:46.101Z,49.80
2023-11-18T21:13:12.659Z,62.60
2023-11-18T21:15:39.215Z,59.05
2023-11-18T21:18:05.782Z,65.53
2023-11-18T21:20:32.412Z,59.83
2023-11-18T21:22:59.021Z,68.10
2023-11-18T21:25:25.513Z,63.00
2023-11-18T21:27:52.046Z,67.57
2023-11-18T21:30:18.585Z,61.50
2023-11-18T21:32:45.144Z,55.90
2023-11-18T21:35:11.889Z,48.92
2023-11-18T21:37:38.622Z,50.72
2023-11-18T21:40:05.134Z,51.03
2023-11-18T21:42:31.626Z,45.42
2023-11-18T21:44:58.246Z,48.20
2023-11-18T21:47:24.789Z,49.13
2023-11-18T21:49:52.185Z,46.90
2023-11-18T21:52:19.169Z,55.20
2023-11-18T21:54:45.647Z,59.45
2023-11-18T21:57:12.128Z,55.35
2023-11-18T21:59:38.766Z,60.60
2023-11-18T22:02:05.366Z,59.42
2023-11-18T22:04:31.982Z,60.97
2023-11-18T22:06:58.613Z,50.78
2023-11-18T22:09:25.347Z,64.15
2023-11-18T22:11:52.102Z,49.58
2023-11-18T22:14:18.750Z,60.22
2023-11-18T22:16:45.353Z,52.25
2023-11-18T22:19:11.872Z,56.70
2023-11-18T22:21:38.562Z,55.83
2023-11-18T22:24:05.046Z,53.90
2023-11-18T22:26:31.615Z,66.25
2023-11-18T22:28:58.266Z,63.92
2023-11-18T22:31:24.839Z,53.00
2023-11-18T22:33:51.351Z,53.35
2023-11-18T22:36:17.912Z,56.65
2023-11-18T22:38:44.424Z,60.92
2023-11-18T22:41:11.010Z,61.63
2023-11-18T22:43:37.671Z,60.47
2023-11-18T22:46:04.154Z,49.03
2023-11-18T22:48:30.654Z,45.50
2023-11-18T22:50:57.259Z,47.92
2023-11-18T22:53:23.819Z,49.17
2023-11-18T22:55:50.388Z,45.47
2023-11-18T22:58:16.932Z,54.90
2023-11-18T23:00:43.458Z,49.83
2023-11-18T23:03:10.105Z,66.22
2023-11-18T23:05:36.804Z,57.58
2023-11-18T23:08:03.283Z,44.70
2023-11-18T23:10:29.753Z,49.50
2023-11-18T23:12:56.542Z,49.13
2023-11-18T23:15:23.325Z,46.80
2023-11-18T23:17:50.435Z,62.67
2023-11-18T23:20:17.317Z,55.50
2023-11-18T23:22:43.855Z,47.03
2023-11-18T23:25:10.354Z,50.83
2023-11-18T23:27:36.943Z,46.10
2023-11-18T23:30:03.467Z,37.05
2023-11-18T23:32:30.944Z,43.42
2023-11-18T23:34:57.627Z,43.50
2023-11-18T23:37:24.180Z,55.42
2023-11-18T23:39:50.755Z,66.05
2023-11-18T23:42:17.358Z,51.92
2023-11-18T23:44:43.874Z,52.88
2023-11-18T23:47:10.392Z,32.60
2023-11-18T23:49:37.034Z,64.53
2023-11-18T23:52:03.517Z,42.83
2023-11-18T23:54:30.001Z,49.10
2023-11-18T23:56:56.664Z,47.50
2023-11-18T23:59:23.147Z,52.20
